Upland, CA (91784)

8:39 AM PST on February 19, 2017 (GMT -0800)
North Upland | | Change Station
Active Advisory: Small Craft Advisory

Elev 1755 ft 34.14 °N, 117.65 °W | Updated 13 seconds ago

Overcast
Overcast
48.9 °F
Feels Like 48 °F
N
3.6
Wind Variable Wind from SSW
Gusts 3.6 mph

Today
High -- | Low -- °F
--% Chance of Precip.
Yesterday
High -- | Low -- °F
Precip. -- in
Pressure 29.89 in
Visibility 10.0 miles
Clouds Few 2600 ft
Mostly Cloudy 4600 ft
Mostly Cloudy 6500 ft
Windchill 48 °F
Dew Point 48 °F
Humidity 98%
Rainfall 0.04 in
Snow Depth Not available.
6:30 AM 5:38 PM
Last Quarter, 42% visible
METAR KONT 191553Z 23006KT 10SM FEW026 BKN046 BKN065 11/09 A2989 RMK AO2 SLP121 T01110094 $
Pressure 29.89 in
Visibility 10.0 miles
Clouds Few 2600 ft
Mostly Cloudy 4600 ft
Mostly Cloudy 6500 ft
Windchill 48 °F
Dew Point 48 °F
Humidity 98%
Rainfall 0.04 in
Snow Depth Not available.
6:30 AM 5:38 PM
Last Quarter, 42% visible
METAR KONT 191553Z 23006KT 10SM FEW026 BKN046 BKN065 11/09 A2989 RMK AO2 SLP121 T01110094 $

Get Your Daily Forecast Email!

Thanks for signing up!

Be on the lookout for a verification email in your inbox.

You'll start receiving the daily forecast at 8 AM.

×

10-Day Weather Forecast

Almanac

Astronomy

Feb. 19, 2017 Rise Set
Actual Time
Civil Twilight
Nautical Twilight
Astronomical Twilight
Moon
Length of Visible Light
Length of Day
Tomorrow will be .
, % of the Moon is Illuminated

Today's Extremes

State Highs State Lows

Community

WunderPhotos

Upload Photos

1,962,540 photos uploaded!

WunderBlog® & News

Nearby

Air Quality

  Air Quality AQ Index Pollutant
Not available.

Snow Depth

Station Depth Elevation

Earthquake Activity

City Distance Mag. Time & Date
Minimum magnitude displayed is 2.5.

Coastal Water Temperatures

Place Temperature

Stations

Nearby Weather Stations

Station Location Temp. Windchill Dew Point Humidity Wind Precip. Elev Updated Type
                   

Watches & Warnings

Small Craft Advisory
Issued: 3:51 AM PST Feb. 19, 2017 – National Weather Service

... Small Craft Advisory remains in effect until 3 PM PST this
afternoon...

See the coastal waters forecast (cwflox) for more details.

Precautionary/preparedness actions...

A Small Craft Advisory means that hazardous sea conditions will
exist for small craft. Inexperienced mariners... especially those
operating smaller vessels should avoid navigating in these
conditions.